Time;durP1;ratioP1;P1;durP2;ratioP2;P2;SDS_P1;SDS_P2;PMS_P1;PMS_P2;Temp;Humidity;BMP_temperature;BMP_pressure;BME280_temperature;BME280_humidity;BME280_pressure;Samples;Min_cycle;Max_cycle;Signal;HPM_P1;HPM_P2
2022/11/18 00:02:16;;;;;;;9.83;3.93;;;;;;;6.46;100.00;99328.63;5265419;28;20104;-72
2022/11/18 00:04:47;;;;;;;8.60;2.83;;;;;;;6.45;100.00;99326.91;5265312;28;20029;-73
2022/11/18 00:07:19;;;;;;;11.90;4.40;;;;;;;6.42;100.00;99331.28;5265139;28;20033;-73
2022/11/18 00:09:50;;;;;;;8.87;3.83;;;;;;;6.41;100.00;99324.41;5265760;28;20060;-71
2022/11/18 00:15:11;;;;;;;10.32;3.28;;;;;;;6.33;100.00;99322.81;5265952;28;20127;-72
2022/11/18 00:17:43;;;;;;;8.87;2.93;;;;;;;6.30;100.00;99330.63;5265446;28;20112;-71
2022/11/18 00:20:14;;;;;;;7.83;2.83;;;;;;;6.31;100.00;99332.34;5265794;28;20033;-72
2022/11/18 00:22:46;;;;;;;7.70;3.27;;;;;;;6.28;100.00;99341.88;5264327;28;20033;-71
2022/11/18 00:25:17;;;;;;;13.53;3.70;;;;;;;6.27;100.00;99346.22;5265652;28;20025;-74
2022/11/18 00:27:48;;;;;;;11.47;3.23;;;;;;;6.23;100.00;99341.13;5264910;28;20036;-72
2022/11/18 00:30:20;;;;;;;6.90;3.47;;;;;;;6.20;100.00;99345.47;5264592;28;20118;-73
2022/11/18 00:32:51;;;;;;;9.43;3.67;;;;;;;6.25;100.00;99348.00;5263258;28;20116;-72
2022/11/18 00:35:22;;;;;;;6.47;3.90;;;;;;;6.27;100.00;99353.97;5265103;28;20098;-72
2022/11/18 00:37:54;;;;;;;9.90;3.27;;;;;;;6.33;100.00;99348.69;5264719;28;20044;-73
2022/11/18 00:40:25;;;;;;;9.03;3.63;;;;;;;6.40;100.00;99354.63;5264856;28;20029;-72
2022/11/18 00:42:56;;;;;;;7.37;3.00;;;;;;;6.46;100.00;99361.44;5264370;28;20545;-71
2022/11/18 00:45:28;;;;;;;8.93;3.33;;;;;;;6.45;100.00;99360.56;5265015;28;20071;-72
2022/11/18 00:47:59;;;;;;;9.87;3.53;;;;;;;6.47;100.00;99366.56;5264844;28;20039;-71
2022/11/18 00:50:32;;;;;;;6.87;2.87;;;;;;;6.45;100.00;99372.66;5264534;28;20094;-72
2022/11/18 00:53:03;;;;;;;10.60;3.10;;;;;;;6.45;100.00;99378.66;5264394;28;20025;-72
2022/11/18 00:55:34;;;;;;;10.77;3.13;;;;;;;6.48;100.00;99377.78;5263600;28;20037;-72
2022/11/18 00:58:06;;;;;;;8.90;3.13;;;;;;;6.49;100.00;99379.50;5263462;28;20139;-72
2022/11/18 01:00:37;;;;;;;6.67;2.77;;;;;;;6.53;100.00;99379.38;5264496;28;20078;-72
2022/11/18 01:03:11;;;;;;;13.33;4.43;;;;;;;6.56;100.00;99388.84;5264306;28;20037;-72
2022/11/18 01:05:42;;;;;;;9.30;3.05;;;;;;;6.60;100.00;99393.09;5264255;28;20048;-72
2022/11/18 01:08:14;;;;;;;7.57;2.73;;;;;;;6.61;100.00;99393.94;5263993;28;20036;-72
2022/11/18 01:10:47;;;;;;;8.27;2.97;;;;;;;6.65;100.00;99391.25;5264106;28;20621;-72
2022/11/18 01:13:22;;;;;;;7.53;2.97;;;;;;;6.67;100.00;99402.44;5264053;28;20464;-72
2022/11/18 01:15:56;;;;;;;8.90;3.80;;;;;;;6.70;100.00;99401.53;5264292;28;20037;-71
2022/11/18 01:18:29;;;;;;;9.13;2.95;;;;;;;6.71;100.00;99408.41;5263712;28;20033;-72
2022/11/18 01:21:02;;;;;;;9.63;3.72;;;;;;;6.74;100.00;99405.75;5264090;28;20407;-71
2022/11/18 01:23:33;;;;;;;;;;;;;;;6.76;100.00;99411.75;5264033;28;20240;-71
2022/11/18 01:26:08;;;;;;;8.80;3.30;;;;;;;6.81;100.00;99416.84;5263907;28;19916;-72
2022/11/18 01:28:40;;;;;;;6.55;2.58;;;;;;;6.86;100.00;99418.47;5279159;28;20028;-72
2022/11/18 01:31:17;;;;;;;6.40;3.37;;;;;;;6.87;100.00;99425.34;5284532;28;20127;-72
2022/11/18 01:33:48;;;;;;;7.38;3.17;;;;;;;6.90;100.00;99424.44;5283936;28;20454;-72
2022/11/18 01:36:22;;;;;;;6.20;2.53;;;;;;;6.96;100.00;99426.91;5283714;28;20082;-72
2022/11/18 01:38:54;;;;;;;7.53;2.85;;;;;;;6.93;100.00;99430.41;5283895;28;20107;-73
2022/11/18 01:41:26;;;;;;;6.10;2.70;;;;;;;6.95;100.00;99430.38;5284682;28;20158;-72
2022/11/18 01:44:04;;;;;;;5.28;2.88;;;;;;;6.95;100.00;99432.97;5283838;28;20031;-70
2022/11/18 01:46:36;;;;;;;7.45;2.60;;;;;;;7.01;100.00;99434.59;5284487;28;20021;-71
2022/11/18 01:49:13;;;;;;;9.37;3.23;;;;;;;6.99;100.00;99437.22;5283657;28;20058;-72
2022/11/18 01:51:53;;;;;;;9.05;3.42;;;;;;;7.03;100.00;99449.22;5283062;28;20391;-73
2022/11/18 01:54:31;;;;;;;11.25;3.50;;;;;;;6.98;100.00;99445.88;5284607;28;20042;-71
2022/11/18 01:57:07;;;;;;;10.73;3.40;;;;;;;7.05;100.00;99446.59;5282213;28;20455;-72
2022/11/18 01:59:41;;;;;;;7.40;2.88;;;;;;;7.06;100.00;99443.97;5266814;28;20035;-71
2022/11/18 02:02:14;;;;;;;8.43;2.80;;;;;;;7.07;100.00;99448.28;5283232;28;20029;-71
2022/11/18 02:04:47;;;;;;;7.78;3.08;;;;;;;7.08;100.00;99449.13;5283869;28;20040;-72
2022/11/18 02:07:20;;;;;;;9.43;3.75;;;;;;;7.15;100.00;99458.50;5283611;28;20040;-71
2022/11/18 02:09:52;;;;;;;8.20;3.40;;;;;;;7.20;100.00;99461.84;5283934;28;20036;-71
2022/11/18 02:12:23;;;;;;;9.95;3.08;;;;;;;7.24;100.00;99463.47;5283232;28;20033;-72
2022/11/18 02:14:55;;;;;;;8.10;3.30;;;;;;;7.29;100.00;99455.59;5284099;28;20382;-71
2022/11/18 02:17:58;;;;;;;7.03;3.57;;;;;;;7.30;100.00;99454.75;5281769;28;20037;-71
2022/11/18 02:20:41;;;;;;;10.07;2.85;;;;;;;7.29;100.00;99453.91;5284011;28;20024;-72
2022/11/18 02:23:32;;;;;;;10.27;3.30;;;;;;;7.30;100.00;99460.75;5283415;28;20422;-71
2022/11/18 02:26:12;;;;;;;7.70;3.20;;;;;;;7.38;100.00;99468.38;5283564;28;20383;-71
2022/11/18 02:29:16;;;;;;;8.18;4.03;;;;;;;7.38;100.00;99480.50;5282785;28;20428;-71
2022/11/18 02:31:57;;;;;;;5.82;2.60;;;;;;;7.42;100.00;99475.22;5277845;28;20024;-72
2022/11/18 02:35:10;;;;;;;6.90;3.05;;;;;;;7.44;100.00;99477.78;5262778;28;20056;-72
2022/11/18 02:38:10;;;;;;;8.32;2.88;;;;;;;7.47;100.00;99480.28;5215226;28;20044;-74
2022/11/18 02:40:54;;;;;;;4.40;2.45;;;;;;;7.46;100.00;99478.59;5262669;28;20380;-73
2022/11/18 02:43:32;;;;;;;5.93;2.40;;;;;;;7.53;100.00;99484.50;5260476;28;20025;-71
2022/11/18 02:46:09;;;;;;;11.18;3.03;;;;;;;7.52;100.00;99487.97;5262038;28;20025;-72
2022/11/18 02:48:46;;;;;;;8.48;2.72;;;;;;;7.55;100.00;99498.28;5261378;28;20111;-72
2022/11/18 02:51:25;;;;;;;7.97;2.63;;;;;;;7.59;100.00;99492.16;5261551;28;20068;-72
2022/11/18 02:54:02;;;;;;;8.32;3.88;;;;;;;7.62;100.00;99499.88;5260913;28;20188;-73
2022/11/18 02:56:35;;;;;;;8.85;3.35;;;;;;;7.62;100.00;99507.66;5262533;28;20385;-71
2022/11/18 02:59:06;;;;;;;8.85;3.35;;;;;;;7.61;100.00;99492.97;5262451;28;20525;-71
2022/11/18 03:01:38;;;;;;;9.30;3.03;;;;;;;7.59;100.00;99505.97;5261959;28;20111;-72
2022/11/18 03:04:12;;;;;;;10.63;3.05;;;;;;;7.58;100.00;99499.09;5261252;28;20029;-71
2022/11/18 03:06:55;;;;;;;7.18;3.13;;;;;;;7.60;100.00;99505.09;5261983;28;20064;-71
2022/11/18 03:09:28;;;;;;;9.80;3.08;;;;;;;7.61;100.00;99513.72;5261986;28;20029;-71
2022/11/18 03:12:28;;;;;;;7.60;3.03;;;;;;;7.61;100.00;99509.38;5260654;28;20553;-72
2022/11/18 03:15:08;;;;;;;10.85;3.70;;;;;;;7.62;100.00;99515.44;5262384;28;20040;-71
2022/11/18 03:17:42;;;;;;;8.82;2.95;;;;;;;7.63;100.00;99520.59;5261314;28;20037;-72
2022/11/18 03:20:28;;;;;;;7.10;2.90;;;;;;;7.64;100.00;99521.44;5262170;28;20033;-72
2022/11/18 03:23:14;;;;;;;7.50;3.72;;;;;;;7.62;100.00;99525.81;5264701;28;20064;-71
2022/11/18 03:25:49;;;;;;;8.25;2.67;;;;;;;7.61;100.00;99524.09;5281278;28;20028;-71
2022/11/18 03:28:36;;;;;;;7.97;3.47;;;;;;;7.64;100.00;99530.06;5285810;28;20036;-72
2022/11/18 03:31:13;;;;;;;8.07;3.28;;;;;;;7.62;100.00;99529.25;5286587;28;20028;-72
2022/11/18 03:33:56;;;;;;;6.88;2.83;;;;;;;7.59;100.00;99537.09;5286574;28;20032;-71
2022/11/18 03:36:33;;;;;;;12.45;3.15;;;;;;;7.60;100.00;99537.94;5287012;28;20044;-73
2022/11/18 03:39:08;;;;;;;4.60;2.60;;;;;;;7.59;100.00;99544.88;5286221;28;20035;-72
2022/11/18 03:41:48;;;;;;;8.20;2.90;;;;;;;7.59;100.00;99546.63;5287173;28;20120;-71
2022/11/18 03:44:24;;;;;;;4.65;2.78;;;;;;;7.59;100.00;99546.63;5286853;28;20047;-72
2022/11/18 03:47:03;;;;;;;8.00;3.05;;;;;;;7.57;100.00;99557.03;5285732;28;20035;-71
2022/11/18 03:49:41;;;;;;;7.20;3.20;;;;;;;7.57;100.00;99554.44;5286853;28;20036;-72
2022/11/18 03:52:21;;;;;;;8.40;3.45;;;;;;;7.56;100.00;99559.66;5286071;28;20455;-72
2022/11/18 03:54:56;;;;;;;8.20;2.85;;;;;;;7.55;100.00;99564.00;5285216;28;20099;-72
2022/11/18 03:57:37;;;;;;;6.18;3.05;;;;;;;7.55;100.00;99566.59;5285793;28;20052;-72
2022/11/18 04:00:13;;;;;;;9.43;3.00;;;;;;;7.53;100.00;99568.34;5285108;28;20524;-73
2022/11/18 04:02:46;;;;;;;7.13;3.25;;;;;;;7.47;100.00;99564.13;5286393;28;20055;-72
2022/11/18 04:05:18;;;;;;;7.00;3.17;;;;;;;7.43;100.00;99569.41;5285983;28;20075;-72
2022/11/18 04:07:58;;;;;;;7.53;2.90;;;;;;;7.40;100.00;99577.25;5285872;28;20145;-73
2022/11/18 04:14:09;;;;;;;8.10;3.72;;;;;;;7.26;100.00;99587.88;5223707;28;20516;-72
2022/11/18 04:16:44;;;;;;;10.10;4.03;;;;;;;7.21;100.00;99594.88;5286371;28;20032;-72
2022/11/18 04:19:15;;;;;;;9.77;3.53;;;;;;;7.14;100.00;99594.13;5286235;28;20094;-72
2022/11/18 04:21:47;;;;;;;7.43;3.80;;;;;;;7.06;100.00;99594.25;5284569;28;20032;-74
2022/11/18 04:24:19;;;;;;;9.60;4.22;;;;;;;7.04;100.00;99590.00;5285945;28;20120;-71
2022/11/18 04:26:50;;;;;;;7.17;4.03;;;;;;;6.93;100.00;99592.78;5285408;28;20546;-69
2022/11/18 04:29:22;;;;;;;11.87;4.50;;;;;;;6.88;100.00;99603.22;5286497;28;20067;-73
2022/11/18 04:31:53;;;;;;;12.90;4.30;;;;;;;6.87;100.00;99598.06;5284720;28;20070;-72
2022/11/18 04:34:25;;;;;;;10.07;4.07;;;;;;;6.73;100.00;99609.50;5285310;28;20032;-71
2022/11/18 04:36:57;;;;;;;9.20;4.95;;;;;;;6.68;100.00;99619.09;5285393;28;20546;-73
2022/11/18 04:39:28;;;;;;;12.90;4.60;;;;;;;6.64;100.00;99611.38;5285785;28;20419;-72
2022/11/18 04:42:00;;;;;;;9.37;4.70;;;;;;;6.59;100.00;99608.03;5285204;28;20395;-72
2022/11/18 04:44:33;;;;;;;10.43;5.60;;;;;;;6.57;100.00;99610.63;5285922;28;20093;-72
2022/11/18 04:47:05;;;;;;;11.95;4.95;;;;;;;6.54;100.00;99623.63;5285206;28;20036;-71
2022/11/18 04:49:36;;;;;;;15.02;5.35;;;;;;;6.48;100.00;99619.38;5285665;28;20090;-70
2022/11/18 04:52:08;;;;;;;12.13;5.27;;;;;;;6.47;100.00;99628.03;5284928;28;20032;-71
2022/11/18 04:54:40;;;;;;;10.57;4.57;;;;;;;6.46;100.00;99625.47;5285778;28;20037;-72
2022/11/18 04:57:12;;;;;;;14.43;4.80;;;;;;;6.42;100.00;99627.22;5285081;28;20653;-72
2022/11/18 04:59:43;;;;;;;9.17;5.00;;;;;;;6.35;100.00;99630.78;5284266;28;20037;-73
2022/11/18 05:02:14;;;;;;;13.70;5.23;;;;;;;6.31;100.00;99637.75;5284472;28;20265;-71
2022/11/18 05:04:46;;;;;;;10.90;4.90;;;;;;;6.33;100.00;99643.75;5285613;28;20434;-72
2022/11/18 05:07:17;;;;;;;14.17;5.50;;;;;;;6.35;100.00;99646.31;5283751;28;20040;-72
2022/11/18 05:09:49;;;;;;;12.40;5.63;;;;;;;6.30;100.00;99648.13;5283819;28;20126;-71
2022/11/18 05:15:10;;;;;;;12.88;5.50;;;;;;;6.30;100.00;99648.13;5285300;28;20040;-72
2022/11/18 05:17:41;;;;;;;11.73;4.67;;;;;;;6.30;100.00;99655.88;5284668;28;20436;-72
2022/11/18 05:20:13;;;;;;;10.97;5.17;;;;;;;6.25;100.00;99650.78;5284728;28;20103;-71
2022/11/18 05:22:44;;;;;;;19.63;6.33;;;;;;;6.28;100.00;99662.78;5283194;28;20410;-71
2022/11/18 05:25:15;;;;;;;11.33;5.97;;;;;;;6.21;100.00;99654.25;5284982;28;20414;-71
2022/11/18 05:27:47;;;;;;;10.10;5.13;;;;;;;6.19;100.00;99656.88;5283165;28;20032;-72
2022/11/18 05:30:18;;;;;;;13.30;5.77;;;;;;;6.14;100.00;99660.41;5284587;28;20033;-72
2022/11/18 05:32:49;;;;;;;18.97;5.83;;;;;;;6.18;100.00;99662.06;5283981;28;20490;-71
2022/11/18 05:35:21;;;;;;;12.43;7.07;;;;;;;6.17;100.00;99661.22;5285042;28;20029;-71
2022/11/18 05:37:52;;;;;;;13.47;5.93;;;;;;;6.15;100.00;99664.69;5284130;28;20036;-71
2022/11/18 05:40:23;;;;;;;14.87;5.90;;;;;;;6.13;100.00;99675.06;5284709;28;20506;-71
2022/11/18 05:43:10;;;;;;;11.90;6.33;;;;;;;6.09;100.00;99673.41;5284018;28;20098;-70
2022/11/18 05:45:42;;;;;;;13.88;5.75;;;;;;;6.06;100.00;99681.19;5283512;28;20036;-71
2022/11/18 05:48:14;;;;;;;12.50;5.68;;;;;;;6.06;100.00;99678.59;5284098;28;20032;-72
2022/11/18 05:50:48;;;;;;;15.80;7.00;;;;;;;6.03;100.00;99683.81;5284149;28;20037;-71
2022/11/18 05:53:22;;;;;;;10.02;6.20;;;;;;;6.05;100.00;99691.56;5283798;28;20032;-71
2022/11/18 05:56:04;;;;;;;16.25;6.05;;;;;;;6.04;100.00;99682.94;5284432;28;20032;-70
2022/11/18 05:58:35;;;;;;;12.88;5.57;;;;;;;6.02;100.00;99701.06;5283344;28;20475;-72
2022/11/18 06:01:08;;;;;;;9.73;5.87;;;;;;;6.01;100.00;99703.69;5266038;28;20083;-71
2022/11/18 06:03:40;;;;;;;12.60;5.32;;;;;;;6.01;100.00;99701.09;5283448;28;20028;-72
2022/11/18 06:06:16;;;;;;;14.47;6.20;;;;;;;6.03;100.00;99701.91;5284313;28;20037;-72
2022/11/18 06:09:02;;;;;;;13.50;6.75;;;;;;;6.03;100.00;99707.09;5283302;28;20259;-72
2022/11/18 06:11:43;;;;;;;11.70;6.43;;;;;;;6.00;100.00;99707.97;5283845;28;20095;-72
2022/11/18 06:14:33;;;;;;;15.85;6.53;;;;;;;5.97;100.00;99709.75;5282362;28;20032;-72
2022/11/18 06:17:09;;;;;;;11.80;5.32;;;;;;;5.95;100.00;99724.41;5283574;28;20032;-72
2022/11/18 06:19:41;;;;;;;12.30;7.15;;;;;;;5.89;100.00;99717.56;5283624;28;20032;-72
2022/11/18 06:22:12;;;;;;;10.70;6.30;;;;;;;5.85;100.00;99721.06;5283195;28;20029;-71
2022/11/18 06:24:44;;;;;;;11.50;6.37;;;;;;;5.90;100.00;99736.53;5282463;28;20032;-71
2022/11/18 06:27:16;;;;;;;11.23;5.87;;;;;;;5.84;100.00;99738.31;5283206;28;20037;-73
2022/11/18 06:29:47;;;;;;;11.23;7.33;;;;;;;5.83;100.00;99740.91;5283631;28;20468;-72
2022/11/18 06:32:18;;;;;;;16.50;6.30;;;;;;;5.81;100.00;99747.81;5282750;28;20044;-73
2022/11/18 06:34:50;;;;;;;12.03;5.83;;;;;;;5.80;100.00;99751.28;5282585;28;20115;-72
2022/11/18 06:37:21;;;;;;;17.50;8.43;;;;;;;5.78;100.00;99751.31;5282556;28;20079;-73
2022/11/18 06:39:52;;;;;;;12.80;6.20;;;;;;;5.77;100.00;99751.31;5283659;28;20036;-72
2022/11/18 06:45:17;;;;;;;12.70;6.15;;;;;;;5.73;100.00;99749.63;5283050;28;20045;-74
2022/11/18 06:47:48;;;;;;;11.13;5.90;;;;;;;5.78;100.00;99765.94;5282764;28;20033;-72
2022/11/18 06:50:20;;;;;;;11.97;6.93;;;;;;;5.75;100.00;99759.09;5283352;28;20075;-72
2022/11/18 06:52:51;;;;;;;19.33;10.87;;;;;;;5.79;100.00;99773.69;5282547;28;20115;-72
2022/11/18 06:55:22;;;;;;;14.37;8.33;;;;;;;5.83;100.00;99774.53;5283244;28;20028;-71
2022/11/18 06:57:57;;;;;;;14.13;7.30;;;;;;;5.83;100.00;99792.66;5281933;28;20039;-72
2022/11/18 07:00:28;;;;;;;11.77;5.75;;;;;;;5.84;100.00;99787.47;5283180;28;20533;-71
2022/11/18 07:03:01;;;;;;;12.97;6.53;;;;;;;5.88;100.00;99785.69;5282755;28;20028;-70
2022/11/18 07:05:32;;;;;;;;;;;;;;;5.84;100.00;99794.34;5282710;28;20048;-72
2022/11/18 07:08:05;;;;;;;12.13;6.13;;;;;;;5.83;100.00;99793.50;5282401;28;20387;-71
2022/11/18 07:10:36;;;;;;;11.13;6.17;;;;;;;5.78;100.00;99795.28;5282819;28;20041;-72
2022/11/18 07:13:08;;;;;;;11.17;5.73;;;;;;;5.74;100.00;99797.91;5263592;28;20380;-72
2022/11/18 07:15:39;;;;;;;12.60;6.20;;;;;;;5.73;100.00;99807.38;5282723;28;20032;-72
2022/11/18 07:18:10;;;;;;;10.47;5.53;;;;;;;5.70;100.00;99797.06;5280801;28;20036;-72
2022/11/18 07:20:42;;;;;;;13.50;6.07;;;;;;;5.73;100.00;99814.25;5282758;28;20037;-73
2022/11/18 07:23:13;;;;;;;13.70;6.40;;;;;;;5.68;100.00;99816.88;5280916;28;20043;-73
2022/11/18 07:25:44;;;;;;;16.47;6.30;;;;;;;5.66;100.00;99819.47;5282505;28;20059;-71
2022/11/18 07:28:16;;;;;;;12.83;6.07;;;;;;;5.62;100.00;99816.97;5281940;28;20475;-73
2022/11/18 07:30:47;;;;;;;10.03;5.80;;;;;;;5.62;100.00;99820.41;5282305;28;20035;-72
2022/11/18 07:33:18;;;;;;;13.10;6.07;;;;;;;5.61;100.00;99829.00;5282099;28;20041;-73
2022/11/18 07:35:50;;;;;;;7.97;5.67;;;;;;;5.59;100.00;99837.66;5282754;28;20029;-71
2022/11/18 07:38:21;;;;;;;11.13;6.50;;;;;;;5.59;100.00;99842.84;5282168;28;20029;-71
2022/11/18 07:40:52;;;;;;;10.17;6.30;;;;;;;5.65;100.00;99835.00;5282726;28;20090;-73
2022/11/18 07:43:24;;;;;;;13.13;6.87;;;;;;;5.62;100.00;99848.00;5281766;28;20085;-71
2022/11/18 07:45:55;;;;;;;11.00;6.27;;;;;;;5.61;100.00;99843.69;5281481;28;20116;-72
2022/11/18 07:48:26;;;;;;;10.07;5.77;;;;;;;5.61;100.00;99848.84;5280977;28;20491;-71
2022/11/18 07:50:59;;;;;;;19.10;7.93;;;;;;;5.68;100.00;99857.41;5282618;28;20032;-72
2022/11/18 07:53:32;;;;;;;15.80;6.50;;;;;;;5.72;100.00;99857.38;5281989;28;20032;-72
2022/11/18 07:56:05;;;;;;;12.50;6.70;;;;;;;5.79;100.00;99855.59;5282634;28;20021;-71
2022/11/18 07:58:36;;;;;;;14.80;6.32;;;;;;;5.83;100.00;99860.75;5282104;28;20024;-71
2022/11/18 08:01:13;;;;;;;13.70;6.53;;;;;;;5.94;100.00;99872.72;5275415;28;20044;-73
2022/11/18 08:03:45;;;;;;;13.98;6.68;;;;;;;6.04;100.00;99869.22;5269464;28;20040;-72
2022/11/18 08:06:18;;;;;;;15.13;6.47;;;;;;;6.13;100.00;99873.44;5280306;28;20048;-73
2022/11/18 08:08:49;;;;;;;10.07;5.68;;;;;;;6.20;100.00;99880.28;5269435;28;20045;-74
2022/11/18 08:11:21;;;;;;;16.43;6.30;;;;;;;6.29;100.00;99881.91;5264844;28;20480;-72
2022/11/18 08:13:52;;;;;;;10.10;6.47;;;;;;;6.37;100.00;99883.53;5267720;28;20113;-73
2022/11/18 08:16:24;;;;;;;11.60;6.10;;;;;;;6.39;100.00;99887.00;5284049;28;20047;-72
2022/11/18 08:18:59;;;;;;;12.52;5.93;;;;;;;6.41;100.00;99892.16;5281861;28;20079;-71
2022/11/18 08:21:30;;;;;;;11.52;5.95;;;;;;;6.35;100.00;99900.84;5275066;28;20033;-72
2022/11/18 08:24:02;;;;;;;10.60;5.47;;;;;;;6.33;100.00;99897.41;5268200;28;20032;-71
2022/11/18 08:26:33;;;;;;;8.87;5.97;;;;;;;6.30;100.00;99899.19;5267058;28;20029;-71
2022/11/18 08:29:05;;;;;;;10.13;6.07;;;;;;;6.29;100.00;99906.06;5264188;28;20032;-72
2022/11/18 08:31:36;;;;;;;12.30;6.70;;;;;;;6.28;100.00;99913.84;5261578;28;20311;-74
2022/11/18 08:34:07;;;;;;;14.70;6.57;;;;;;;6.37;100.00;99911.16;5266738;28;20033;-72
2022/11/18 08:36:39;;;;;;;10.93;5.77;;;;;;;6.44;100.00;99904.19;5263997;28;20107;-72
2022/11/18 08:39:10;;;;;;;12.83;6.87;;;;;;;6.60;100.00;99912.66;5274601;28;20535;-72
2022/11/18 08:41:42;;;;;;;15.07;6.73;;;;;;;6.67;100.00;99901.38;5285162;28;20503;-71
2022/11/18 08:44:15;;;;;;;10.97;6.30;;;;;;;6.78;100.00;99909.03;5276854;28;20067;-72
2022/11/18 08:46:46;;;;;;;8.48;5.65;;;;;;;6.86;100.00;99909.78;5284081;28;20037;-71
2022/11/18 08:49:18;;;;;;;10.90;6.33;;;;;;;6.94;100.00;99910.56;5284368;28;20031;-74
2022/11/18 08:51:49;;;;;;;10.30;5.30;;;;;;;7.07;100.00;99917.31;5269399;28;20103;-73
2022/11/18 08:54:21;;;;;;;11.30;5.73;;;;;;;7.23;100.00;99914.50;5261945;28;20175;-71
2022/11/18 08:56:52;;;;;;;18.27;6.57;;;;;;;7.32;100.00;99913.56;5264165;28;20108;-70
2022/11/18 08:59:23;;;;;;;12.07;5.80;;;;;;;7.48;100.00;99922.84;5262271;28;20067;-70
2022/11/18 09:01:55;;;;;;;9.93;5.20;;;;;;;7.61;100.00;99921.75;5262154;28;20040;-72
2022/11/18 09:04:26;;;;;;;12.33;6.50;;;;;;;7.71;100.00;99921.63;5262171;28;20029;-72
2022/11/18 09:06:57;;;;;;;12.43;6.27;;;;;;;7.77;100.00;99932.78;5263344;28;20053;-72
2022/11/18 09:09:29;;;;;;;11.13;4.87;;;;;;;7.91;100.00;99927.38;5263861;28;20032;-71
2022/11/18 09:12:00;;;;;;;11.77;5.77;;;;;;;8.11;100.00;99940.03;5246353;28;20044;-72
2022/11/18 09:14:31;;;;;;;14.77;4.77;;;;;;;8.44;100.00;99924.81;5263705;28;20357;-72
2022/11/18 09:17:03;;;;;;;8.53;4.53;;;;;;;8.81;100.00;99934.53;5246363;28;20373;-72
2022/11/18 09:19:34;;;;;;;8.57;4.53;;;;;;;8.86;100.00;99937.88;5263311;28;20407;-72
2022/11/18 09:22:07;;;;;;;8.67;4.03;;;;;;;8.98;98.96;99946.34;5263919;28;20032;-71
2022/11/18 09:24:39;;;;;;;8.35;4.05;;;;;;;9.09;98.95;99942.63;5263455;28;20052;-72
2022/11/18 09:27:11;;;;;;;13.10;4.97;;;;;;;9.00;97.85;99952.34;5246501;28;20399;-74
2022/11/18 09:29:42;;;;;;;13.13;4.70;;;;;;;9.04;97.90;99954.00;5262288;28;20025;-72
2022/11/18 09:32:14;;;;;;;9.57;4.07;;;;;;;9.23;97.14;99955.34;5261991;28;20094;-74
2022/11/18 09:34:45;;;;;;;9.53;4.00;;;;;;;9.52;96.63;99972.09;5262584;28;20025;-71
2022/11/18 09:37:16;;;;;;;7.90;3.77;;;;;;;9.90;95.71;99974.72;5263175;28;20494;-73
2022/11/18 09:39:48;;;;;;;7.23;4.57;;;;;;;10.19;94.12;99979.25;5263692;28;20120;-72
2022/11/18 09:42:54;;;;;;;10.97;5.00;;;;;;;10.30;91.54;99984.19;5258499;28;20407;-73
2022/11/18 09:45:33;;;;;;;10.02;4.00;;;;;;;10.38;88.69;99990.97;5261988;28;20090;-72
2022/11/18 09:51:27;;;;;;;12.90;4.28;;;;;;;10.96;85.86;99990.34;5261671;28;20503;-72
2022/11/18 09:54:00;;;;;;;7.70;3.45;;;;;;;10.66;85.76;100000.69;5274250;28;20032;-72
2022/11/18 09:56:32;;;;;;;11.88;3.53;;;;;;;10.34;86.94;100015.38;5281086;28;20029;-72
2022/11/18 09:59:03;;;;;;;9.77;3.57;;;;;;;10.34;87.33;100010.16;5280010;28;20043;-72
2022/11/18 10:01:35;;;;;;;11.67;3.40;;;;;;;10.29;87.67;100012.00;5282471;28;20060;-72
2022/11/18 10:04:15;;;;;;;8.43;3.20;;;;;;;10.14;88.03;100021.03;5283238;28;20040;-73
2022/11/18 10:06:48;;;;;;;5.57;2.92;;;;;;;10.12;88.88;100017.59;5281143;28;20395;-73
2022/11/18 10:09:32;;;;;;;13.25;2.88;;;;;;;10.26;87.92;100022.50;5281834;28;20035;-73
2022/11/18 10:12:29;;;;;;;8.77;3.08;;;;;;;10.51;88.24;100032.34;5283896;28;20034;-73
2022/11/18 10:15:00;;;;;;;9.57;3.08;;;;;;;10.29;87.07;100021.53;5282479;28;20028;-73
2022/11/18 10:17:44;;;;;;;11.47;3.03;;;;;;;10.22;88.33;100021.72;5282664;28;20032;-74
2022/11/18 10:20:31;;;;;;;7.68;3.00;;;;;;;10.60;87.54;100029.53;5282459;28;20104;-73
2022/11/18 10:23:25;;;;;;;7.88;2.90;;;;;;;11.11;85.79;100030.81;5275116;28;20535;-72
2022/11/18 10:25:57;;;;;;;9.02;2.85;;;;;;;11.00;82.75;100032.88;5275014;28;20024;-73
2022/11/18 10:28:29;;;;;;;11.03;2.80;;;;;;;10.79;83.95;100035.13;5282895;28;20059;-71
2022/11/18 10:31:06;;;;;;;11.70;3.38;;;;;;;10.55;84.47;100040.06;5261411;28;20100;-72
2022/11/18 10:33:38;;;;;;;10.57;3.08;;;;;;;10.29;85.74;100037.19;5261758;28;20024;-73
2022/11/18 10:36:15;;;;;;;9.80;3.10;;;;;;;10.12;87.04;100043.63;5262185;28;20032;-73
2022/11/18 10:38:47;;;;;;;12.10;2.97;;;;;;;10.06;87.36;100035.97;5260675;28;20175;-73
2022/11/18 10:41:20;;;;;;;12.07;3.03;;;;;;;10.13;88.32;100040.16;5248782;28;20123;-73
2022/11/18 10:43:55;;;;;;;8.85;3.00;;;;;;;10.28;87.20;100045.91;5282962;28;20032;-73
2022/11/18 10:46:37;;;;;;;13.27;3.42;;;;;;;10.28;87.12;100045.91;5281318;28;20028;-72
2022/11/18 10:49:09;;;;;;;8.40;2.83;;;;;;;10.09;86.88;100051.53;5281884;28;20013;-73
2022/11/18 10:52:04;;;;;;;7.83;3.30;;;;;;;10.03;87.09;100042.13;5283116;28;20375;-72
2022/11/18 10:54:36;;;;;;;8.23;3.00;;;;;;;9.81;88.26;100046.94;5279735;28;20062;-72
2022/11/18 10:57:18;;;;;;;7.32;3.05;;;;;;;9.90;88.14;100045.88;5275942;28;20392;-73
2022/11/18 10:59:56;;;;;;;8.70;2.67;;;;;;;9.97;88.20;100047.44;5271602;28;20024;-72
2022/11/18 11:02:39;;;;;;;9.30;3.20;;;;;;;10.13;87.78;100057.53;5281563;28;20036;-72
2022/11/18 11:05:22;;;;;;;7.80;2.90;;;;;;;10.14;87.19;100054.03;5258990;28;20404;-72
2022/11/18 11:08:05;;;;;;;10.98;2.92;;;;;;;10.15;87.53;100050.53;5260172;28;20029;-73
2022/11/18 11:10:36;;;;;;;7.72;3.03;;;;;;;10.16;87.71;100050.50;5261244;28;20111;-72
2022/11/18 11:13:15;;;;;;;9.97;3.80;;;;;;;10.24;87.18;100060.75;5259777;28;20124;-72
2022/11/18 11:15:51;;;;;;;10.27;2.88;;;;;;;10.26;87.03;100058.97;5269838;28;20032;-72
2022/11/18 11:18:42;;;;;;;8.18;3.10;;;;;;;10.36;87.10;100064.84;5281999;28;20028;-70
2022/11/18 11:21:24;;;;;;;8.93;3.65;;;;;;;10.39;86.24;100056.97;5281135;28;20036;-72
2022/11/18 11:23:56;;;;;;;5.55;2.40;;;;;;;10.44;86.02;100075.94;5281909;28;20073;-71
2022/11/18 11:26:45;;;;;;;7.07;2.58;;;;;;;10.52;86.60;100071.41;5281212;28;20487;-72
2022/11/18 11:29:54;;;;;;;14.93;3.50;;;;;;;10.57;86.53;100068.69;5281672;28;20060;-71
2022/11/18 11:33:04;;;;;;;11.73;3.50;;;;;;;10.85;85.80;100075.81;5281930;28;20482;-72
2022/11/18 11:35:54;;;;;;;9.50;3.13;;;;;;;10.75;85.30;100069.97;5281364;28;20429;-72
2022/11/18 11:38:53;;;;;;;8.20;2.50;;;;;;;10.64;85.64;100078.09;5282182;28;20029;-72
2022/11/18 11:41:29;;;;;;;6.95;2.47;;;;;;;10.39;86.21;100075.19;5280302;28;20032;-72
2022/11/18 11:44:31;;;;;;;10.15;3.20;;;;;;;10.29;87.10;100073.66;5285324;28;20032;-72
2022/11/18 11:50:16;;;;;;;7.45;2.85;;;;;;;10.20;88.09;100077.34;5286976;28;20483;-72
2022/11/18 11:53:05;;;;;;;9.90;3.20;;;;;;;10.16;88.47;100081.75;5285037;28;20032;-73
2022/11/18 11:56:03;;;;;;;8.10;2.80;;;;;;;10.28;88.44;100082.38;5287260;28;20115;-72
2022/11/18 11:58:55;;;;;;;8.68;3.40;;;;;;;10.32;88.12;100090.13;5285892;28;20101;-71
2022/11/18 12:01:38;;;;;;;7.25;3.42;;;;;;;10.36;86.90;100081.31;5286451;28;20042;-71
2022/11/18 12:04:33;;;;;;;13.88;3.38;;;;;;;10.37;87.67;100088.25;5286251;28;20459;-72
2022/11/18 12:07:12;;;;;;;11.98;4.13;;;;;;;10.37;87.71;100080.44;5285853;28;20044;-72
2022/11/18 12:10:05;;;;;;;14.05;3.33;;;;;;;10.48;87.49;100093.22;5284888;28;20025;-72
2022/11/18 12:12:49;;;;;;;11.27;3.38;;;;;;;11.55;85.11;100087.91;5286181;28;20080;-71
2022/11/18 12:15:42;;;;;;;5.45;2.72;;;;;;;12.69;80.79;100087.09;5286351;28;20028;-72
2022/11/18 12:18:31;;;;;;;8.85;2.75;;;;;;;13.07;77.25;100093.66;5285311;28;20040;-72
2022/11/18 12:21:03;;;;;;;7.90;2.70;;;;;;;13.21;75.20;100081.88;5286338;28;20169;-72
2022/11/18 12:23:34;;;;;;;9.50;2.13;;;;;;;13.75;73.88;100080.81;5282071;28;20440;-72
2022/11/18 12:26:09;;;;;;;7.97;2.47;;;;;;;14.32;68.83;100081.25;5274817;28;20029;-72
2022/11/18 12:28:44;;;;;;;11.57;3.03;;;;;;;14.79;66.70;100087.28;5279232;28;20032;-72